sensor_id;sensor_type;location;lat;lon;timestamp;temperature;humidity
57652;DHT22;43480;53.116;6.734;2023-04-06T00:02:07;3.50;99.90
57652;DHT22;43480;53.116;6.734;2023-04-06T00:04:33;3.50;99.90
57652;DHT22;43480;53.116;6.734;2023-04-06T00:06:58;3.40;99.90
57652;DHT22;43480;53.116;6.734;2023-04-06T00:09:24;3.30;99.90
57652;DHT22;43480;53.116;6.734;2023-04-06T00:11:50;3.30;99.90
57652;DHT22;43480;53.116;6.734;2023-04-06T00:14:15;3.30;99.90
57652;DHT22;43480;53.116;6.734;2023-04-06T00:16:42;3.20;99.90
57652;DHT22;43480;53.116;6.734;2023-04-06T00:19:08;3.10;99.90
57652;DHT22;43480;53.116;6.734;2023-04-06T00:21:33;3.10;99.90
57652;DHT22;43480;53.116;6.734;2023-04-06T00:23:59;3.10;99.90
57652;DHT22;43480;53.116;6.734;2023-04-06T00:26:24;3.00;99.90
57652;DHT22;43480;53.116;6.734;2023-04-06T00:28:50;2.90;99.90
57652;DHT22;43480;53.116;6.734;2023-04-06T00:31:17;2.90;99.90
57652;DHT22;43480;53.116;6.734;2023-04-06T00:33:43;2.80;99.90
57652;DHT22;43480;53.116;6.734;2023-04-06T00:36:08;2.70;99.90
57652;DHT22;43480;53.116;6.734;2023-04-06T00:38:34;2.70;99.90
57652;DHT22;43480;53.116;6.734;2023-04-06T00:40:59;2.60;99.90
57652;DHT22;43480;53.116;6.734;2023-04-06T00:43:25;2.60;99.90
57652;DHT22;43480;53.116;6.734;2023-04-06T00:45:51;2.60;99.90
57652;DHT22;43480;53.116;6.734;2023-04-06T00:48:16;2.60;99.90
57652;DHT22;43480;53.116;6.734;2023-04-06T00:50:42;2.50;99.90
57652;DHT22;43480;53.116;6.734;2023-04-06T00:53:07;2.50;99.90
57652;DHT22;43480;53.116;6.734;2023-04-06T00:55:33;2.50;99.90
57652;DHT22;43480;53.116;6.734;2023-04-06T00:58:01;2.50;99.90
57652;DHT22;43480;53.116;6.734;2023-04-06T01:00:27;2.50;99.90
57652;DHT22;43480;53.116;6.734;2023-04-06T01:02:52;2.50;99.90
57652;DHT22;43480;53.116;6.734;2023-04-06T01:05:18;2.50;99.90
57652;DHT22;43480;53.116;6.734;2023-04-06T01:07:44;2.50;99.90
57652;DHT22;43480;53.116;6.734;2023-04-06T01:10:09;2.40;99.90
57652;DHT22;43480;53.116;6.734;2023-04-06T01:12:35;2.40;99.90
57652;DHT22;43480;53.116;6.734;2023-04-06T01:15:02;2.30;99.90
57652;DHT22;43480;53.116;6.734;2023-04-06T01:17:28;2.30;99.90
57652;DHT22;43480;53.116;6.734;2023-04-06T01:19:54;2.30;99.90
57652;DHT22;43480;53.116;6.734;2023-04-06T01:22:19;2.30;99.90
57652;DHT22;43480;53.116;6.734;2023-04-06T01:24:45;2.30;99.90
57652;DHT22;43480;53.116;6.734;2023-04-06T01:27:11;2.20;99.90
57652;DHT22;43480;53.116;6.734;2023-04-06T01:29:37;2.30;99.90
57652;DHT22;43480;53.116;6.734;2023-04-06T01:32:03;2.20;99.90
57652;DHT22;43480;53.116;6.734;2023-04-06T01:34:29;2.20;99.90
57652;DHT22;43480;53.116;6.734;2023-04-06T01:36:54;2.20;99.90
57652;DHT22;43480;53.116;6.734;2023-04-06T01:39:20;2.20;99.90
57652;DHT22;43480;53.116;6.734;2023-04-06T01:41:45;2.20;99.90
57652;DHT22;43480;53.116;6.734;2023-04-06T01:44:12;2.20;99.90
57652;DHT22;43480;53.116;6.734;2023-04-06T01:46:38;2.20;99.90
57652;DHT22;43480;53.116;6.734;2023-04-06T01:49:03;2.20;99.90
57652;DHT22;43480;53.116;6.734;2023-04-06T01:51:29;2.20;99.90
57652;DHT22;43480;53.116;6.734;2023-04-06T01:53:55;2.20;99.90
57652;DHT22;43480;53.116;6.734;2023-04-06T01:56:21;2.20;99.90
57652;DHT22;43480;53.116;6.734;2023-04-06T01:58:46;2.20;99.90
57652;DHT22;43480;53.116;6.734;2023-04-06T02:01:12;2.10;99.90
57652;DHT22;43480;53.116;6.734;2023-04-06T02:03:37;2.10;99.90
57652;DHT22;43480;53.116;6.734;2023-04-06T02:06:03;2.00;99.90
57652;DHT22;43480;53.116;6.734;2023-04-06T02:08:29;2.00;99.90
57652;DHT22;43480;53.116;6.734;2023-04-06T02:10:54;2.00;99.90
57652;DHT22;43480;53.116;6.734;2023-04-06T02:13:20;2.00;99.90
57652;DHT22;43480;53.116;6.734;2023-04-06T02:15:45;2.10;99.90
57652;DHT22;43480;53.116;6.734;2023-04-06T02:18:11;2.00;99.90
57652;DHT22;43480;53.116;6.734;2023-04-06T02:20:37;2.10;99.90
57652;DHT22;43480;53.116;6.734;2023-04-06T02:23:02;2.10;99.90
57652;DHT22;43480;53.116;6.734;2023-04-06T02:25:28;2.10;99.90
57652;DHT22;43480;53.116;6.734;2023-04-06T02:27:53;2.10;99.90
57652;DHT22;43480;53.116;6.734;2023-04-06T02:30:19;2.20;99.90
57652;DHT22;43480;53.116;6.734;2023-04-06T02:32:45;2.10;99.90
57652;DHT22;43480;53.116;6.734;2023-04-06T02:35:10;2.10;99.90
57652;DHT22;43480;53.116;6.734;2023-04-06T02:37:36;2.10;99.90
57652;DHT22;43480;53.116;6.734;2023-04-06T02:40:01;2.10;99.90
57652;DHT22;43480;53.116;6.734;2023-04-06T02:42:27;2.10;99.90
57652;DHT22;43480;53.116;6.734;2023-04-06T02:44:53;2.10;99.90
57652;DHT22;43480;53.116;6.734;2023-04-06T02:47:18;2.20;99.90
57652;DHT22;43480;53.116;6.734;2023-04-06T02:49:44;2.30;99.90
57652;DHT22;43480;53.116;6.734;2023-04-06T02:52:10;2.30;99.90
57652;DHT22;43480;53.116;6.734;2023-04-06T02:54:36;2.20;99.90
57652;DHT22;43480;53.116;6.734;2023-04-06T02:57:01;2.20;99.90
57652;DHT22;43480;53.116;6.734;2023-04-06T02:59:27;2.10;99.90
57652;DHT22;43480;53.116;6.734;2023-04-06T03:01:52;2.10;99.90
57652;DHT22;43480;53.116;6.734;2023-04-06T03:04:18;2.00;99.90
57652;DHT22;43480;53.116;6.734;2023-04-06T03:06:43;2.00;99.90
57652;DHT22;43480;53.116;6.734;2023-04-06T03:09:09;2.00;99.90
57652;DHT22;43480;53.116;6.734;2023-04-06T03:11:34;2.00;99.90
57652;DHT22;43480;53.116;6.734;2023-04-06T03:14:00;1.80;99.90
57652;DHT22;43480;53.116;6.734;2023-04-06T03:16:25;1.90;99.90
57652;DHT22;43480;53.116;6.734;2023-04-06T03:18:51;1.80;99.90
57652;DHT22;43480;53.116;6.734;2023-04-06T03:21:16;1.90;99.90
57652;DHT22;43480;53.116;6.734;2023-04-06T03:23:42;1.90;99.90
57652;DHT22;43480;53.116;6.734;2023-04-06T03:26:08;1.90;99.90
57652;DHT22;43480;53.116;6.734;2023-04-06T03:28:33;2.00;99.90
57652;DHT22;43480;53.116;6.734;2023-04-06T03:30:59;2.10;99.90
57652;DHT22;43480;53.116;6.734;2023-04-06T03:33:25;2.10;99.90
57652;DHT22;43480;53.116;6.734;2023-04-06T03:35:52;2.10;99.90
57652;DHT22;43480;53.116;6.734;2023-04-06T03:38:18;2.00;99.90
57652;DHT22;43480;53.116;6.734;2023-04-06T03:40:43;1.80;99.90
57652;DHT22;43480;53.116;6.734;2023-04-06T03:43:09;1.70;99.90
57652;DHT22;43480;53.116;6.734;2023-04-06T03:45:35;1.60;99.90
57652;DHT22;43480;53.116;6.734;2023-04-06T03:48:00;1.50;99.90
57652;DHT22;43480;53.116;6.734;2023-04-06T03:50:26;1.40;99.90
57652;DHT22;43480;53.116;6.734;2023-04-06T03:52:51;1.40;99.90
57652;DHT22;43480;53.116;6.734;2023-04-06T03:55:17;1.30;99.90
57652;DHT22;43480;53.116;6.734;2023-04-06T03:57:42;1.30;99.90
57652;DHT22;43480;53.116;6.734;2023-04-06T04:00:08;1.20;99.90
57652;DHT22;43480;53.116;6.734;2023-04-06T04:02:34;1.20;99.90
57652;DHT22;43480;53.116;6.734;2023-04-06T04:04:59;1.10;99.90
57652;DHT22;43480;53.116;6.734;2023-04-06T04:07:25;1.10;99.90
57652;DHT22;43480;53.116;6.734;2023-04-06T04:09:51;1.10;99.90
57652;DHT22;43480;53.116;6.734;2023-04-06T04:12:16;1.10;99.90
57652;DHT22;43480;53.116;6.734;2023-04-06T04:14:42;1.10;99.90
57652;DHT22;43480;53.116;6.734;2023-04-06T04:17:08;1.00;99.90
57652;DHT22;43480;53.116;6.734;2023-04-06T04:19:33;1.00;99.90
57652;DHT22;43480;53.116;6.734;2023-04-06T04:21:59;1.00;99.90
57652;DHT22;43480;53.116;6.734;2023-04-06T04:24:24;1.00;99.90
57652;DHT22;43480;53.116;6.734;2023-04-06T04:26:50;1.00;99.90
57652;DHT22;43480;53.116;6.734;2023-04-06T04:29:15;1.00;99.90
57652;DHT22;43480;53.116;6.734;2023-04-06T04:31:41;1.10;99.90
57652;DHT22;43480;53.116;6.734;2023-04-06T04:34:07;1.10;99.90
57652;DHT22;43480;53.116;6.734;2023-04-06T04:36:33;1.10;99.90
57652;DHT22;43480;53.116;6.734;2023-04-06T04:38:58;1.00;99.90
57652;DHT22;43480;53.116;6.734;2023-04-06T04:41:26;1.00;99.90
57652;DHT22;43480;53.116;6.734;2023-04-06T04:43:51;0.90;99.90
57652;DHT22;43480;53.116;6.734;2023-04-06T04:46:17;0.80;99.90
57652;DHT22;43480;53.116;6.734;2023-04-06T04:48:43;0.80;99.90
57652;DHT22;43480;53.116;6.734;2023-04-06T04:51:08;0.80;99.90
57652;DHT22;43480;53.116;6.734;2023-04-06T04:53:34;0.80;99.90
57652;DHT22;43480;53.116;6.734;2023-04-06T04:55:59;0.70;99.90
57652;DHT22;43480;53.116;6.734;2023-04-06T04:58:25;0.80;99.90
57652;DHT22;43480;53.116;6.734;2023-04-06T05:00:50;0.80;99.90
57652;DHT22;43480;53.116;6.734;2023-04-06T05:03:18;0.80;99.90
57652;DHT22;43480;53.116;6.734;2023-04-06T05:05:45;0.80;99.90
57652;DHT22;43480;53.116;6.734;2023-04-06T05:08:11;0.90;99.90
57652;DHT22;43480;53.116;6.734;2023-04-06T05:10:37;0.90;99.90
57652;DHT22;43480;53.116;6.734;2023-04-06T05:13:02;0.90;99.90
57652;DHT22;43480;53.116;6.734;2023-04-06T05:15:28;1.00;99.90
57652;DHT22;43480;53.116;6.734;2023-04-06T05:17:53;1.00;99.90
57652;DHT22;43480;53.116;6.734;2023-04-06T05:20:19;1.10;99.90
57652;DHT22;43480;53.116;6.734;2023-04-06T05:22:45;1.20;99.90
57652;DHT22;43480;53.116;6.734;2023-04-06T05:25:10;1.20;99.90
57652;DHT22;43480;53.116;6.734;2023-04-06T05:27:36;1.20;99.90
57652;DHT22;43480;53.116;6.734;2023-04-06T05:30:01;1.20;99.90
57652;DHT22;43480;53.116;6.734;2023-04-06T05:32:27;1.10;99.90
57652;DHT22;43480;53.116;6.734;2023-04-06T05:34:53;1.10;99.90
57652;DHT22;43480;53.116;6.734;2023-04-06T05:37:18;1.10;99.90
57652;DHT22;43480;53.116;6.734;2023-04-06T05:39:44;1.10;99.90
57652;DHT22;43480;53.116;6.734;2023-04-06T05:42:10;1.10;99.90
57652;DHT22;43480;53.116;6.734;2023-04-06T05:44:36;1.10;99.90
57652;DHT22;43480;53.116;6.734;2023-04-06T05:47:02;1.20;99.90
57652;DHT22;43480;53.116;6.734;2023-04-06T05:49:27;1.20;99.90
57652;DHT22;43480;53.116;6.734;2023-04-06T05:51:53;1.20;99.90
57652;DHT22;43480;53.116;6.734;2023-04-06T05:54:18;1.20;99.90
57652;DHT22;43480;53.116;6.734;2023-04-06T05:56:44;1.30;99.90
57652;DHT22;43480;53.116;6.734;2023-04-06T05:59:10;1.30;99.90
57652;DHT22;43480;53.116;6.734;2023-04-06T06:01:35;1.40;99.90
57652;DHT22;43480;53.116;6.734;2023-04-06T06:04:01;1.40;99.90
57652;DHT22;43480;53.116;6.734;2023-04-06T06:06:27;1.40;99.90
57652;DHT22;43480;53.116;6.734;2023-04-06T06:08:54;1.50;99.90
57652;DHT22;43480;53.116;6.734;2023-04-06T06:11:19;1.60;99.90
57652;DHT22;43480;53.116;6.734;2023-04-06T06:13:45;1.60;99.90
57652;DHT22;43480;53.116;6.734;2023-04-06T06:16:10;1.70;99.90
57652;DHT22;43480;53.116;6.734;2023-04-06T06:18:36;1.70;99.90
57652;DHT22;43480;53.116;6.734;2023-04-06T06:21:02;1.80;99.90
57652;DHT22;43480;53.116;6.734;2023-04-06T06:23:27;1.90;99.90
57652;DHT22;43480;53.116;6.734;2023-04-06T06:25:53;1.90;99.90
57652;DHT22;43480;53.116;6.734;2023-04-06T06:28:19;2.00;99.90
57652;DHT22;43480;53.116;6.734;2023-04-06T06:30:44;2.10;99.90
57652;DHT22;43480;53.116;6.734;2023-04-06T06:33:10;2.10;99.90
57652;DHT22;43480;53.116;6.734;2023-04-06T06:35:36;2.20;99.90
57652;DHT22;43480;53.116;6.734;2023-04-06T06:38:01;2.30;99.90
57652;DHT22;43480;53.116;6.734;2023-04-06T06:40:27;2.40;99.90
57652;DHT22;43480;53.116;6.734;2023-04-06T06:42:53;2.50;99.90
57652;DHT22;43480;53.116;6.734;2023-04-06T06:45:18;2.50;99.90
57652;DHT22;43480;53.116;6.734;2023-04-06T06:47:45;2.60;99.90
57652;DHT22;43480;53.116;6.734;2023-04-06T06:50:11;2.70;99.90
57652;DHT22;43480;53.116;6.734;2023-04-06T06:52:37;2.80;99.90
57652;DHT22;43480;53.116;6.734;2023-04-06T06:55:02;3.00;99.90
57652;DHT22;43480;53.116;6.734;2023-04-06T06:57:28;3.00;99.90
57652;DHT22;43480;53.116;6.734;2023-04-06T06:59:53;3.10;99.90
57652;DHT22;43480;53.116;6.734;2023-04-06T07:02:19;3.20;99.90
57652;DHT22;43480;53.116;6.734;2023-04-06T07:04:47;3.30;99.90
57652;DHT22;43480;53.116;6.734;2023-04-06T07:07:13;3.40;99.90
57652;DHT22;43480;53.116;6.734;2023-04-06T07:09:38;3.50;99.90
57652;DHT22;43480;53.116;6.734;2023-04-06T07:12:04;3.60;99.90
57652;DHT22;43480;53.116;6.734;2023-04-06T07:14:30;3.60;99.90
57652;DHT22;43480;53.116;6.734;2023-04-06T07:16:55;3.70;99.90
57652;DHT22;43480;53.116;6.734;2023-04-06T07:19:21;3.80;99.90
57652;DHT22;43480;53.116;6.734;2023-04-06T07:21:46;3.90;99.90
57652;DHT22;43480;53.116;6.734;2023-04-06T07:24:14;4.00;99.90
57652;DHT22;43480;53.116;6.734;2023-04-06T07:26:40;4.10;99.90
57652;DHT22;43480;53.116;6.734;2023-04-06T07:29:05;4.20;99.90
57652;DHT22;43480;53.116;6.734;2023-04-06T07:31:31;4.30;99.90
57652;DHT22;43480;53.116;6.734;2023-04-06T07:33:56;4.40;99.90
57652;DHT22;43480;53.116;6.734;2023-04-06T07:36:22;4.40;99.90
57652;DHT22;43480;53.116;6.734;2023-04-06T07:38:47;4.50;99.90
57652;DHT22;43480;53.116;6.734;2023-04-06T07:41:14;4.60;99.90
57652;DHT22;43480;53.116;6.734;2023-04-06T07:43:40;4.70;99.90
57652;DHT22;43480;53.116;6.734;2023-04-06T07:46:05;4.80;99.90
57652;DHT22;43480;53.116;6.734;2023-04-06T07:48:31;4.90;99.90
57652;DHT22;43480;53.116;6.734;2023-04-06T07:51:00;5.00;99.90
57652;DHT22;43480;53.116;6.734;2023-04-06T07:53:26;5.10;99.90
57652;DHT22;43480;53.116;6.734;2023-04-06T07:55:52;5.20;99.90
57652;DHT22;43480;53.116;6.734;2023-04-06T07:58:17;5.30;99.90
57652;DHT22;43480;53.116;6.734;2023-04-06T08:00:43;5.40;99.90
57652;DHT22;43480;53.116;6.734;2023-04-06T08:03:08;5.50;99.90
57652;DHT22;43480;53.116;6.734;2023-04-06T08:05:34;5.60;99.90
57652;DHT22;43480;53.116;6.734;2023-04-06T08:07:59;5.70;99.90
57652;DHT22;43480;53.116;6.734;2023-04-06T08:10:25;5.80;99.90
57652;DHT22;43480;53.116;6.734;2023-04-06T08:12:51;6.00;99.90
57652;DHT22;43480;53.116;6.734;2023-04-06T08:15:17;6.00;99.90
57652;DHT22;43480;53.116;6.734;2023-04-06T08:17:43;6.20;99.90
57652;DHT22;43480;53.116;6.734;2023-04-06T08:20:09;6.30;99.90
57652;DHT22;43480;53.116;6.734;2023-04-06T08:22:34;6.40;99.90
57652;DHT22;43480;53.116;6.734;2023-04-06T08:25:00;6.50;99.90
57652;DHT22;43480;53.116;6.734;2023-04-06T08:27:25;6.60;99.90
57652;DHT22;43480;53.116;6.734;2023-04-06T08:29:51;6.70;99.90
57652;DHT22;43480;53.116;6.734;2023-04-06T08:32:17;6.80;99.90
57652;DHT22;43480;53.116;6.734;2023-04-06T08:34:42;7.00;99.90
57652;DHT22;43480;53.116;6.734;2023-04-06T08:37:08;7.10;99.90
57652;DHT22;43480;53.116;6.734;2023-04-06T08:39:33;7.20;99.90
57652;DHT22;43480;53.116;6.734;2023-04-06T08:41:59;7.40;99.90
57652;DHT22;43480;53.116;6.734;2023-04-06T08:44:28;7.40;99.90
57652;DHT22;43480;53.116;6.734;2023-04-06T08:46:54;7.50;99.90
57652;DHT22;43480;53.116;6.734;2023-04-06T08:49:20;7.70;99.90
57652;DHT22;43480;53.116;6.734;2023-04-06T08:51:46;7.80;99.90
57652;DHT22;43480;53.116;6.734;2023-04-06T08:54:12;7.90;99.90
57652;DHT22;43480;53.116;6.734;2023-04-06T08:56:38;8.10;99.90
57652;DHT22;43480;53.116;6.734;2023-04-06T08:59:04;8.20;99.90
57652;DHT22;43480;53.116;6.734;2023-04-06T09:01:30;8.40;99.90
57652;DHT22;43480;53.116;6.734;2023-04-06T09:03:56;8.50;99.90
57652;DHT22;43480;53.116;6.734;2023-04-06T09:06:22;8.60;99.90
57652;DHT22;43480;53.116;6.734;2023-04-06T09:08:48;8.70;99.90
57652;DHT22;43480;53.116;6.734;2023-04-06T09:11:14;8.80;99.90
57652;DHT22;43480;53.116;6.734;2023-04-06T09:16:12;9.10;93.80
57652;DHT22;43480;53.116;6.734;2023-04-06T09:18:38;9.30;96.00
57652;DHT22;43480;53.116;6.734;2023-04-06T09:21:04;9.40;97.30
57652;DHT22;43480;53.116;6.734;2023-04-06T09:23:30;9.50;99.90
57652;DHT22;43480;53.116;6.734;2023-04-06T09:26:09;9.70;90.30
57652;DHT22;43480;53.116;6.734;2023-04-06T09:31:06;10.00;84.60
57652;DHT22;43480;53.116;6.734;2023-04-06T09:33:32;10.20;95.70
57652;DHT22;43480;53.116;6.734;2023-04-06T09:35:57;10.30;89.40
57652;DHT22;43480;53.116;6.734;2023-04-06T09:38:23;10.50;83.30
57652;DHT22;43480;53.116;6.734;2023-04-06T09:40:51;10.70;85.50
57652;DHT22;43480;53.116;6.734;2023-04-06T09:43:24;10.90;80.50
57652;DHT22;43480;53.116;6.734;2023-04-06T09:45:50;11.20;82.30
57652;DHT22;43480;53.116;6.734;2023-04-06T09:48:15;11.30;78.50
57652;DHT22;43480;53.116;6.734;2023-04-06T09:50:41;11.30;78.00
57652;DHT22;43480;53.116;6.734;2023-04-06T09:53:07;11.30;77.80
57652;DHT22;43480;53.116;6.734;2023-04-06T09:55:51;11.20;78.30
57652;DHT22;43480;53.116;6.734;2023-04-06T09:58:18;11.30;77.60
57652;DHT22;43480;53.116;6.734;2023-04-06T10:00:48;11.20;77.40
57652;DHT22;43480;53.116;6.734;2023-04-06T10:05:57;11.30;75.80
57652;DHT22;43480;53.116;6.734;2023-04-06T10:08:26;11.40;78.70
57652;DHT22;43480;53.116;6.734;2023-04-06T10:10:53;11.40;76.10
57652;DHT22;43480;53.116;6.734;2023-04-06T10:13:19;11.40;74.40
57652;DHT22;43480;53.116;6.734;2023-04-06T10:15:45;11.40;75.80
57652;DHT22;43480;53.116;6.734;2023-04-06T10:18:10;11.50;79.30
57652;DHT22;43480;53.116;6.734;2023-04-06T10:20:41;11.50;74.90
57652;DHT22;43480;53.116;6.734;2023-04-06T10:23:09;11.50;75.20
57652;DHT22;43480;53.116;6.734;2023-04-06T10:25:39;11.50;76.00
57652;DHT22;43480;53.116;6.734;2023-04-06T10:28:06;11.50;75.90
57652;DHT22;43480;53.116;6.734;2023-04-06T10:30:32;11.50;77.60
57652;DHT22;43480;53.116;6.734;2023-04-06T10:32:58;11.50;76.20
57652;DHT22;43480;53.116;6.734;2023-04-06T10:35:23;11.60;77.30
57652;DHT22;43480;53.116;6.734;2023-04-06T10:37:50;11.80;77.00
57652;DHT22;43480;53.116;6.734;2023-04-06T10:40:23;11.90;75.80
57652;DHT22;43480;53.116;6.734;2023-04-06T10:42:49;12.00;75.60
57652;DHT22;43480;53.116;6.734;2023-04-06T10:45:19;12.20;78.70
57652;DHT22;43480;53.116;6.734;2023-04-06T10:47:45;12.30;74.00
57652;DHT22;43480;53.116;6.734;2023-04-06T10:50:11;12.40;75.90
57652;DHT22;43480;53.116;6.734;2023-04-06T10:52:39;12.50;72.40
57652;DHT22;43480;53.116;6.734;2023-04-06T10:55:05;12.60;73.30
57652;DHT22;43480;53.116;6.734;2023-04-06T10:57:31;12.60;73.40
57652;DHT22;43480;53.116;6.734;2023-04-06T10:59:58;12.60;72.60
57652;DHT22;43480;53.116;6.734;2023-04-06T11:02:23;12.70;72.90
57652;DHT22;43480;53.116;6.734;2023-04-06T11:04:55;12.90;72.10
57652;DHT22;43480;53.116;6.734;2023-04-06T11:07:22;13.10;71.80
57652;DHT22;43480;53.116;6.734;2023-04-06T11:09:49;13.20;72.10
57652;DHT22;43480;53.116;6.734;2023-04-06T11:12:27;13.50;69.70
57652;DHT22;43480;53.116;6.734;2023-04-06T11:14:54;13.70;70.20
57652;DHT22;43480;53.116;6.734;2023-04-06T11:17:28;14.00;72.20
57652;DHT22;43480;53.116;6.734;2023-04-06T11:19:54;14.20;70.60
57652;DHT22;43480;53.116;6.734;2023-04-06T11:22:20;14.10;66.90
57652;DHT22;43480;53.116;6.734;2023-04-06T11:24:45;14.00;68.80
57652;DHT22;43480;53.116;6.734;2023-04-06T11:27:11;14.00;67.40
57652;DHT22;43480;53.116;6.734;2023-04-06T11:29:37;13.90;66.30
57652;DHT22;43480;53.116;6.734;2023-04-06T11:32:03;14.00;67.20
57652;DHT22;43480;53.116;6.734;2023-04-06T11:34:30;13.90;68.40
57652;DHT22;43480;53.116;6.734;2023-04-06T11:36:56;14.00;68.00
57652;DHT22;43480;53.116;6.734;2023-04-06T11:39:23;14.10;68.30
57652;DHT22;43480;53.116;6.734;2023-04-06T11:41:49;14.20;68.20
57652;DHT22;43480;53.116;6.734;2023-04-06T11:44:15;14.20;67.30
57652;DHT22;43480;53.116;6.734;2023-04-06T11:46:41;14.10;67.10
57652;DHT22;43480;53.116;6.734;2023-04-06T11:49:06;14.00;66.00
57652;DHT22;43480;53.116;6.734;2023-04-06T11:51:35;14.10;67.30
57652;DHT22;43480;53.116;6.734;2023-04-06T11:54:01;14.00;67.10
57652;DHT22;43480;53.116;6.734;2023-04-06T11:56:27;14.00;66.80
57652;DHT22;43480;53.116;6.734;2023-04-06T11:58:56;14.10;67.30
57652;DHT22;43480;53.116;6.734;2023-04-06T12:01:23;14.20;66.90
57652;DHT22;43480;53.116;6.734;2023-04-06T12:03:49;14.50;68.50
57652;DHT22;43480;53.116;6.734;2023-04-06T12:06:15;14.70;67.90
57652;DHT22;43480;53.116;6.734;2023-04-06T12:08:41;14.70;65.80
57652;DHT22;43480;53.116;6.734;2023-04-06T12:11:06;14.70;66.40
57652;DHT22;43480;53.116;6.734;2023-04-06T12:13:32;14.60;64.10
57652;DHT22;43480;53.116;6.734;2023-04-06T12:15:57;14.50;65.40
57652;DHT22;43480;53.116;6.734;2023-04-06T12:18:23;14.40;65.10
57652;DHT22;43480;53.116;6.734;2023-04-06T12:20:49;14.40;64.50
57652;DHT22;43480;53.116;6.734;2023-04-06T12:23:14;14.30;64.40
57652;DHT22;43480;53.116;6.734;2023-04-06T12:25:42;14.30;65.50
57652;DHT22;43480;53.116;6.734;2023-04-06T12:28:08;14.20;63.50
57652;DHT22;43480;53.116;6.734;2023-04-06T12:30:36;14.10;66.20
57652;DHT22;43480;53.116;6.734;2023-04-06T12:33:02;14.20;65.50
57652;DHT22;43480;53.116;6.734;2023-04-06T12:35:27;14.20;65.50
57652;DHT22;43480;53.116;6.734;2023-04-06T12:37:53;14.20;64.40
57652;DHT22;43480;53.116;6.734;2023-04-06T12:40:19;14.30;65.80
57652;DHT22;43480;53.116;6.734;2023-04-06T12:42:45;14.30;65.60
57652;DHT22;43480;53.116;6.734;2023-04-06T12:45:11;14.30;65.80
57652;DHT22;43480;53.116;6.734;2023-04-06T12:47:37;14.40;66.70
57652;DHT22;43480;53.116;6.734;2023-04-06T12:50:03;14.40;66.90
57652;DHT22;43480;53.116;6.734;2023-04-06T12:52:29;14.40;67.40
57652;DHT22;43480;53.116;6.734;2023-04-06T12:54:56;14.40;66.00
57652;DHT22;43480;53.116;6.734;2023-04-06T12:57:22;14.30;66.30
57652;DHT22;43480;53.116;6.734;2023-04-06T12:59:48;14.30;65.40
57652;DHT22;43480;53.116;6.734;2023-04-06T13:02:13;14.20;65.70
57652;DHT22;43480;53.116;6.734;2023-04-06T13:04:40;14.10;67.00
57652;DHT22;43480;53.116;6.734;2023-04-06T13:07:05;14.00;67.60
57652;DHT22;43480;53.116;6.734;2023-04-06T13:09:31;13.90;66.20
57652;DHT22;43480;53.116;6.734;2023-04-06T13:11:56;14.00;66.00
57652;DHT22;43480;53.116;6.734;2023-04-06T13:14:22;13.90;64.80
57652;DHT22;43480;53.116;6.734;2023-04-06T13:16:47;13.80;65.50
57652;DHT22;43480;53.116;6.734;2023-04-06T13:19:13;13.90;66.30
57652;DHT22;43480;53.116;6.734;2023-04-06T13:21:38;13.80;65.90
57652;DHT22;43480;53.116;6.734;2023-04-06T13:24:04;14.00;66.80
57652;DHT22;43480;53.116;6.734;2023-04-06T13:26:30;14.00;68.00
57652;DHT22;43480;53.116;6.734;2023-04-06T13:28:56;14.00;67.70
57652;DHT22;43480;53.116;6.734;2023-04-06T13:31:22;14.10;67.30
57652;DHT22;43480;53.116;6.734;2023-04-06T13:33:47;14.10;66.90
57652;DHT22;43480;53.116;6.734;2023-04-06T13:36:13;14.00;66.00
57652;DHT22;43480;53.116;6.734;2023-04-06T13:38:38;13.90;67.80
57652;DHT22;43480;53.116;6.734;2023-04-06T13:41:04;13.70;65.00
57652;DHT22;43480;53.116;6.734;2023-04-06T13:43:30;13.80;65.70
57652;DHT22;43480;53.116;6.734;2023-04-06T13:45:56;13.70;65.70
57652;DHT22;43480;53.116;6.734;2023-04-06T13:48:23;13.60;65.70
57652;DHT22;43480;53.116;6.734;2023-04-06T13:50:49;13.70;66.30
57652;DHT22;43480;53.116;6.734;2023-04-06T13:53:14;13.70;66.80
57652;DHT22;43480;53.116;6.734;2023-04-06T13:55:40;13.70;66.60
57652;DHT22;43480;53.116;6.734;2023-04-06T13:58:06;13.60;64.90
57652;DHT22;43480;53.116;6.734;2023-04-06T14:00:31;13.50;67.30
57652;DHT22;43480;53.116;6.734;2023-04-06T14:02:57;13.50;67.10
57652;DHT22;43480;53.116;6.734;2023-04-06T14:05:22;13.60;66.60
57652;DHT22;43480;53.116;6.734;2023-04-06T14:07:49;13.50;67.80
57652;DHT22;43480;53.116;6.734;2023-04-06T14:10:14;13.50;68.20
57652;DHT22;43480;53.116;6.734;2023-04-06T14:12:41;13.40;68.90
57652;DHT22;43480;53.116;6.734;2023-04-06T14:15:07;13.40;68.50
57652;DHT22;43480;53.116;6.734;2023-04-06T14:17:33;13.40;68.30
57652;DHT22;43480;53.116;6.734;2023-04-06T14:19:58;13.40;68.00
57652;DHT22;43480;53.116;6.734;2023-04-06T14:22:24;13.40;69.40
57652;DHT22;43480;53.116;6.734;2023-04-06T14:24:50;13.40;68.60
57652;DHT22;43480;53.116;6.734;2023-04-06T14:27:15;13.40;70.20
57652;DHT22;43480;53.116;6.734;2023-04-06T14:29:41;13.40;71.10
57652;DHT22;43480;53.116;6.734;2023-04-06T14:32:06;13.40;70.00
57652;DHT22;43480;53.116;6.734;2023-04-06T14:34:32;13.30;70.40
57652;DHT22;43480;53.116;6.734;2023-04-06T14:36:58;13.20;71.20
57652;DHT22;43480;53.116;6.734;2023-04-06T14:39:25;13.20;69.70
57652;DHT22;43480;53.116;6.734;2023-04-06T14:41:50;13.20;70.50
57652;DHT22;43480;53.116;6.734;2023-04-06T14:44:16;13.30;72.00
57652;DHT22;43480;53.116;6.734;2023-04-06T14:46:42;13.30;72.00
57652;DHT22;43480;53.116;6.734;2023-04-06T14:49:07;13.30;71.70
57652;DHT22;43480;53.116;6.734;2023-04-06T14:51:33;13.20;70.60
57652;DHT22;43480;53.116;6.734;2023-04-06T14:54:00;13.10;72.20
57652;DHT22;43480;53.116;6.734;2023-04-06T14:56:25;13.10;72.80
57652;DHT22;43480;53.116;6.734;2023-04-06T14:58:51;13.00;72.90
57652;DHT22;43480;53.116;6.734;2023-04-06T15:01:18;12.90;71.60
57652;DHT22;43480;53.116;6.734;2023-04-06T15:03:43;12.70;73.30
57652;DHT22;43480;53.116;6.734;2023-04-06T15:06:12;12.70;73.70
57652;DHT22;43480;53.116;6.734;2023-04-06T15:08:40;12.60;74.80
57652;DHT22;43480;53.116;6.734;2023-04-06T15:11:06;12.50;76.20
57652;DHT22;43480;53.116;6.734;2023-04-06T15:13:31;12.40;76.80
57652;DHT22;43480;53.116;6.734;2023-04-06T15:15:57;12.30;77.00
57652;DHT22;43480;53.116;6.734;2023-04-06T15:18:23;12.20;77.80
57652;DHT22;43480;53.116;6.734;2023-04-06T15:20:48;12.00;77.60
57652;DHT22;43480;53.116;6.734;2023-04-06T15:23:14;12.00;79.40
57652;DHT22;43480;53.116;6.734;2023-04-06T15:25:39;11.90;83.20
57652;DHT22;43480;53.116;6.734;2023-04-06T15:28:06;11.80;86.50
57652;DHT22;43480;53.116;6.734;2023-04-06T15:30:32;11.60;87.30
57652;DHT22;43480;53.116;6.734;2023-04-06T15:32:58;11.50;92.20
57652;DHT22;43480;53.116;6.734;2023-04-06T15:35:28;11.50;99.30
57652;DHT22;43480;53.116;6.734;2023-04-06T15:37:57;11.40;99.90
57652;DHT22;43480;53.116;6.734;2023-04-06T15:40:23;11.30;99.90